Time;durP1;ratioP1;P1;durP2;ratioP2;P2;SDS_P1;SDS_P2;PMS_P1;PMS_P2;Temp;Humidity;BMP_temperature;BMP_pressure;BME280_temperature;BME280_humidity;BME280_pressure;Samples;Min_cycle;Max_cycle;Signal;HPM_P1;HPM_P2
2023/02/23 09:11:32;;;;;;;11.73;4.80;;;;;;;12.05;75.78;96278.69;2082136;28;20572;-62
2023/02/23 09:12:33;;;;;;;7.45;4.25;;;;;;;13.13;73.18;96279.38;2082422;28;20197;-63
2023/02/23 09:13:35;;;;;;;8.93;4.40;;;;;;;13.27;72.36;96265.44;2079270;28;20205;-62
2023/02/23 09:14:36;;;;;;;8.77;4.82;;;;;;;14.22;70.44;96277.00;2077748;28;20201;-62
2023/02/23 09:15:38;;;;;;;14.35;5.15;;;;;;;14.08;68.83;96277.03;2072359;28;20244;-62
2023/02/23 09:16:40;;;;;;;12.43;5.68;;;;;;;13.48;69.04;96274.63;2074730;28;20228;-63
2023/02/23 09:17:43;;;;;;;7.93;4.00;;;;;;;13.22;70.99;96273.59;2073503;28;20212;-63
2023/02/23 09:18:45;;;;;;;8.27;4.63;;;;;;;14.25;68.55;96266.28;2081568;28;20238;-62
2023/02/23 09:19:46;;;;;;;19.83;4.68;;;;;;;14.81;66.03;96276.59;2074961;28;20225;-63
2023/02/23 09:20:48;;;;;;;6.18;3.35;;;;;;;14.50;66.01;96270.75;2075519;28;20229;-62
2023/02/23 09:21:49;;;;;;;6.65;4.00;;;;;;;15.02;64.67;96270.84;2074420;28;20201;-63
2023/02/23 09:22:52;;;;;;;6.57;3.85;;;;;;;14.82;65.32;96273.03;2075337;28;20205;-63
2023/02/23 09:23:54;;;;;;;7.65;3.60;;;;;;;14.09;66.28;96273.47;2073090;28;20198;-63
2023/02/23 09:24:56;;;;;;;10.95;3.42;;;;;;;14.52;66.53;96274.13;2073960;28;20226;-62
2023/02/23 09:26:05;;;;;;;9.77;3.45;;;;;;;14.66;65.53;96272.38;2071916;28;21065;-63
2023/02/23 09:27:06;;;;;;;12.20;3.38;;;;;;;14.59;65.05;96273.69;2072387;28;20198;-63
2023/02/23 09:28:10;;;;;;;7.22;3.72;;;;;;;14.94;64.41;96273.16;2075362;28;20212;-63
2023/02/23 09:29:12;;;;;;;6.68;4.00;;;;;;;14.76;63.98;96264.72;2074123;28;20220;-63
2023/02/23 09:30:16;;;;;;;6.07;3.45;;;;;;;15.06;63.17;96264.44;2074600;28;20217;-62
2023/02/23 09:31:21;;;;;;;7.88;3.15;;;;;;;14.34;64.47;96270.91;2070801;28;20275;-62
2023/02/23 09:32:23;;;;;;;7.43;3.30;;;;;;;14.63;64.29;96267.31;2071548;28;20235;-62
2023/02/23 09:33:25;;;;;;;7.25;3.75;;;;;;;15.16;63.80;96276.00;2074723;28;20296;-63
2023/02/23 09:34:29;;;;;;;5.43;3.53;;;;;;;15.37;62.26;96261.47;2074425;28;20232;-63
2023/02/23 09:35:31;;;;;;;7.95;3.40;;;;;;;15.21;63.06;96262.53;2074542;28;20228;-63
2023/02/23 09:36:32;;;;;;;11.23;3.60;;;;;;;15.17;63.24;96269.78;2074667;28;20376;-62
2023/02/23 09:37:34;;;;;;;11.18;3.15;;;;;;;15.01;64.54;96277.06;2070698;28;20261;-63
2023/02/23 09:38:35;;;;;;;8.93;3.53;;;;;;;15.23;65.30;96272.94;2075197;28;20217;-63
2023/02/23 09:39:37;;;;;;;9.73;4.07;;;;;;;14.86;64.64;96271.03;2071788;28;20209;-63
2023/02/23 09:40:46;;;;;;;7.40;3.30;;;;;;;14.89;65.12;96267.38;2073286;28;20202;-62
2023/02/23 09:42:14;;;;;;;8.95;4.05;;;;;;;15.23;63.77;96275.56;2074178;28;20193;-63
2023/02/23 09:43:18;;;;;;;9.13;3.95;;;;;;;15.57;64.97;96270.59;2073435;28;20205;-63
2023/02/23 09:44:22;;;;;;;8.20;3.55;;;;;;;15.78;63.13;96265.56;2076719;28;20426;-61
2023/02/23 09:45:57;;;;;;;6.22;3.55;;;;;;;15.82;64.13;96261.78;2074846;28;20224;-63
2023/02/23 09:47:50;;;;;;;9.98;3.00;;;;;;;15.82;61.85;96272.31;2075258;28;20209;-62
2023/02/23 09:48:55;;;;;;;12.27;3.40;;;;;;;15.43;62.45;96261.84;2058595;28;20634;-63
2023/02/23 09:49:59;;;;;;;7.78;2.85;;;;;;;16.06;61.60;96269.72;2073693;28;20253;-63
2023/02/23 09:51:05;;;;;;;14.15;3.90;;;;;;;16.32;59.83;96272.22;2075201;28;20232;-63
2023/02/23 09:52:16;;;;;;;7.90;3.80;;;;;;;16.27;59.44;96266.47;2074133;28;20724;-63
2023/02/23 09:53:28;;;;;;;6.50;2.92;;;;;;;16.08;59.29;96264.34;2074110;28;20206;-63
2023/02/23 09:54:33;;;;;;;5.75;3.30;;;;;;;15.73;60.37;96268.53;2074942;28;20209;-63
2023/02/23 09:55:39;;;;;;;6.45;3.30;;;;;;;15.19;62.85;96269.69;2074546;28;20201;-63
2023/02/23 09:56:46;;;;;;;8.63;3.25;;;;;;;15.15;62.19;96263.78;2074879;28;20205;-63
2023/02/23 09:57:48;;;;;;;11.50;3.30;;;;;;;14.66;62.76;96269.75;2073516;28;20509;-62
2023/02/23 09:58:50;;;;;;;12.10;3.65;;;;;;;14.13;63.91;96260.03;2071571;28;20344;-62
2023/02/23 09:59:52;;;;;;;10.10;3.10;;;;;;;14.45;64.54;96271.97;2070023;28;20225;-63
2023/02/23 10:00:56;;;;;;;5.95;3.40;;;;;;;14.09;65.90;96266.41;2072000;28;20216;-62
2023/02/23 10:02:23;;;;;;;10.93;3.65;;;;;;;13.94;67.09;96286.66;2074945;28;20205;-62
2023/02/23 10:03:33;;;;;;;7.03;2.80;;;;;;;13.66;67.84;96277.03;2070668;28;20200;-63
2023/02/23 10:04:47;;;;;;;10.68;3.70;;;;;;;13.76;67.67;96278.13;2071080;28;20202;-62
2023/02/23 10:06:01;;;;;;;8.02;3.08;;;;;;;13.93;67.66;96269.22;2072006;28;20216;-62
2023/02/23 10:07:15;;;;;;;7.75;3.58;;;;;;;13.27;68.00;96274.16;2074807;28;20200;-62
2023/02/23 10:08:41;;;;;;;16.02;4.00;;;;;;;12.61;70.13;96286.81;2074838;28;20204;-63
2023/02/23 10:10:00;;;;;;;7.82;3.30;;;;;;;12.35;71.66;96283.91;2073017;28;20210;-63
2023/02/23 10:11:17;;;;;;;9.10;3.72;;;;;;;12.57;71.86;96285.31;2072317;28;20845;-63
2023/02/23 10:12:31;;;;;;;9.98;4.57;;;;;;;13.10;69.46;96290.06;2071400;28;20205;-62
2023/02/23 10:14:00;;;;;;;14.00;3.53;;;;;;;13.43;68.79;96283.72;2073225;28;20197;-63
2023/02/23 10:15:37;;;;;;;10.90;3.70;;;;;;;14.73;65.37;96278.91;2074246;28;20229;-62
2023/02/23 10:16:49;;;;;;;8.35;3.70;;;;;;;14.99;64.33;96278.94;2072703;28;20229;-62
2023/02/23 10:18:07;;;;;;;7.45;3.33;;;;;;;14.54;64.73;96276.66;2075932;28;20201;-62
2023/02/23 10:19:21;;;;;;;9.95;2.50;;;;;;;14.41;63.54;96265.25;2070622;28;20201;-62
2023/02/23 10:20:31;;;;;;;9.02;2.60;;;;;;;14.84;63.14;96276.41;2070197;28;20230;-62
2023/02/23 10:21:37;;;;;;;12.27;3.50;;;;;;;15.58;61.29;96280.13;2074234;28;20205;-62
2023/02/23 10:22:40;;;;;;;5.53;3.00;;;;;;;15.74;59.85;96283.34;2070718;28;20213;-63
2023/02/23 10:23:46;;;;;;;12.07;3.58;;;;;;;15.70;60.40;96281.06;2071715;28;20200;-62
2023/02/23 10:24:54;;;;;;;7.25;2.85;;;;;;;15.74;60.62;96262.31;2067664;28;20324;-62
2023/02/23 10:25:59;;;;;;;7.63;4.10;;;;;;;15.93;60.15;96280.28;2066287;28;20210;-63
2023/02/23 10:27:20;;;;;;;6.90;3.30;;;;;;;15.29;61.67;96275.97;2069426;28;20245;-62
2023/02/23 10:28:22;;;;;;;6.75;3.13;;;;;;;15.02;62.77;96276.94;2068903;28;20206;-62
2023/02/23 10:29:46;;;;;;;9.45;3.08;;;;;;;14.31;63.82;96280.78;2067459;28;20198;-63
2023/02/23 10:30:49;;;;;;;10.40;2.90;;;;;;;14.39;64.15;96273.25;2067384;28;20198;-62
2023/02/23 10:31:58;;;;;;;8.77;3.10;;;;;;;13.62;65.10;96279.00;2066225;28;20222;-63
2023/02/23 10:33:15;;;;;;;10.00;2.70;;;;;;;13.04;65.71;96270.31;2069162;28;20208;-62
2023/02/23 10:34:17;;;;;;;6.80;2.80;;;;;;;12.80;66.17;96283.94;2069908;28;20216;-62
2023/02/23 10:35:21;;;;;;;10.23;2.55;;;;;;;12.64;66.28;96281.38;2065764;28;20249;-62
2023/02/23 10:36:37;;;;;;;7.97;3.05;;;;;;;12.65;65.95;96279.63;2069645;28;20198;-62
2023/02/23 10:37:39;;;;;;;11.13;3.35;;;;;;;12.34;68.34;96276.16;2068577;28;20206;-62
2023/02/23 10:38:40;;;;;;;8.95;3.10;;;;;;;12.25;69.88;96281.00;2066597;28;20261;-62
2023/02/23 10:39:42;;;;;;;6.43;2.90;;;;;;;12.41;67.81;96277.50;2069422;28;20212;-62
2023/02/23 10:40:48;;;;;;;9.75;3.55;;;;;;;12.36;67.43;96280.38;2066392;28;20636;-62
2023/02/23 10:41:51;;;;;;;13.90;2.60;;;;;;;12.43;67.83;96283.50;2066382;28;20239;-63
2023/02/23 10:42:58;;;;;;;8.18;3.20;;;;;;;12.30;68.02;96280.72;2066957;28;20601;-61
2023/02/23 10:44:00;;;;;;;7.82;2.60;;;;;;;12.28;67.89;96269.50;2070226;28;20280;-62
2023/02/23 10:45:23;;;;;;;10.27;3.20;;;;;;;12.11;68.38;96278.31;2069497;28;20236;-62
2023/02/23 10:46:34;;;;;;;13.57;2.80;;;;;;;12.36;68.08;96280.38;2068336;28;20254;-62
2023/02/23 10:47:36;;;;;;;7.30;2.88;;;;;;;12.04;69.73;96282.22;2068484;28;20198;-62
2023/02/23 10:48:41;;;;;;;12.55;3.13;;;;;;;11.78;69.12;96281.84;2069391;28;20205;-62
2023/02/23 10:49:46;;;;;;;12.30;3.22;;;;;;;11.76;67.67;96286.34;2067286;28;20212;-62
2023/02/23 10:50:51;;;;;;;15.07;3.15;;;;;;;11.54;70.09;96278.81;2066680;28;20191;-62
2023/02/23 10:51:56;;;;;;;14.75;3.60;;;;;;;11.68;70.66;96285.91;2068943;28;20214;-61
2023/02/23 10:53:16;;;;;;;20.42;5.25;;;;;;;11.57;72.33;96276.03;2066849;28;20221;-61
2023/02/23 10:54:34;;;;;;;7.00;3.45;;;;;;;11.54;72.06;96281.41;2067770;28;20288;-62
2023/02/23 10:55:35;;;;;;;8.73;3.90;;;;;;;11.66;71.93;96293.00;2066952;28;20231;-62
2023/02/23 10:56:45;;;;;;;8.20;3.28;;;;;;;11.93;71.22;96285.38;2067798;28;20200;-62
2023/02/23 12:01:55;;;;;;;10.82;3.72;;;;;;;14.48;62.48;96227.97;2098277;27;20530;-59
2023/02/23 12:02:59;;;;;;;5.13;2.65;;;;;;;15.71;60.07;96233.59;2095711;28;20345;-59
2023/02/23 12:04:02;;;;;;;9.63;3.25;;;;;;;15.63;58.97;96236.75;2098417;28;20187;-59
2023/02/23 12:05:08;;;;;;;14.73;3.22;;;;;;;15.14;58.76;96235.78;2087609;28;20228;-59
2023/02/23 12:06:10;;;;;;;23.08;6.65;;;;;;;14.99;59.79;96229.81;2081388;28;20230;-60
2023/02/23 12:07:27;;;;;;;10.32;4.90;;;;;;;15.71;59.39;96238.03;2078591;28;20200;-61
2023/02/23 12:08:45;;;;;;;13.57;6.78;;;;;;;15.68;59.48;96237.28;2078606;28;20204;-61
2023/02/23 12:10:02;;;;;;;14.75;5.28;;;;;;;15.43;60.85;96238.19;2074673;28;20329;-62
2023/02/23 12:11:11;;;;;;;17.13;8.15;;;;;;;15.22;61.15;96232.63;2070714;28;20802;-62
2023/02/23 12:12:17;;;;;;;6.72;2.65;;;;;;;15.12;62.07;96236.84;2071502;28;20598;-62
2023/02/23 12:13:41;;;;;;;6.40;3.03;;;;;;;14.77;62.66;96213.84;2071441;28;20201;-62
2023/02/23 12:14:50;;;;;;;3.45;1.90;;;;;;;14.48;61.97;96227.13;2074466;28;20676;-62
2023/02/23 12:16:11;;;;;;;9.15;3.05;;;;;;;14.32;63.54;96227.31;2076910;28;20667;-62
2023/02/23 12:17:22;;;;;;;8.43;2.70;;;;;;;14.17;63.26;96230.00;2080794;28;20242;-63
2023/02/23 12:18:41;;;;;;;6.72;2.80;;;;;;;14.08;64.35;96230.63;2085549;28;20203;-63
